createdAt,value
2023-04-06T00:00:11.060Z,5.88
2023-04-06T00:02:37.965Z,7.93
2023-04-06T00:05:04.971Z,6.60
2023-04-06T00:07:31.591Z,7.47
2023-04-06T00:09:58.165Z,8.65
2023-04-06T00:12:24.902Z,9.55
2023-04-06T00:14:51.582Z,7.03
2023-04-06T00:17:18.612Z,6.65
2023-04-06T00:19:45.235Z,7.28
2023-04-06T00:22:11.999Z,9.38
2023-04-06T00:24:38.661Z,4.93
2023-04-06T00:27:05.719Z,9.82
2023-04-06T00:29:32.346Z,6.95
2023-04-06T00:31:59.139Z,7.65
2023-04-06T00:34:26.143Z,5.57
2023-04-06T00:36:52.773Z,5.47
2023-04-06T00:39:20.944Z,6.28
2023-04-06T00:41:51.885Z,3.67
2023-04-06T00:44:18.949Z,5.47
2023-04-06T00:46:46.193Z,6.75
2023-04-06T00:49:12.841Z,6.95
2023-04-06T00:51:39.438Z,5.85
2023-04-06T00:54:06.601Z,4.82
2023-04-06T00:56:33.328Z,3.50
2023-04-06T00:59:00.325Z,3.42
2023-04-06T01:01:27.680Z,4.68
2023-04-06T01:03:55.132Z,5.07
2023-04-06T01:06:21.769Z,3.05
2023-04-06T01:08:48.378Z,2.75
2023-04-06T01:11:14.968Z,6.18
2023-04-06T01:13:41.555Z,6.22
2023-04-06T01:16:08.314Z,7.13
2023-04-06T01:18:34.964Z,5.38
2023-04-06T01:21:02.458Z,5.50
2023-04-06T01:23:29.246Z,3.85
2023-04-06T01:25:55.993Z,3.38
2023-04-06T01:28:22.696Z,4.43
2023-04-06T01:30:49.255Z,4.40
2023-04-06T01:33:15.903Z,3.45
2023-04-06T01:35:42.555Z,3.47
2023-04-06T01:38:09.271Z,2.33
2023-04-06T01:40:35.918Z,7.32
2023-04-06T01:43:02.696Z,4.05
2023-04-06T01:45:29.339Z,3.58
2023-04-06T01:47:56.132Z,4.47
2023-04-06T01:50:22.731Z,5.25
2023-04-06T01:52:49.310Z,2.80
2023-04-06T01:55:16.341Z,3.10
2023-04-06T01:57:42.945Z,3.30
2023-04-06T02:00:10.640Z,6.38
2023-04-06T02:02:37.440Z,6.10
2023-04-06T02:05:04.206Z,5.03
2023-04-06T02:07:31.326Z,2.83
2023-04-06T02:09:58.103Z,3.78
2023-04-06T02:12:27.688Z,2.97
2023-04-06T02:14:54.294Z,6.50
2023-04-06T02:17:20.911Z,4.22
2023-04-06T02:19:47.660Z,5.22
2023-04-06T02:22:14.219Z,2.60
2023-04-06T02:24:41.234Z,3.90
2023-04-06T02:27:07.837Z,4.03
2023-04-06T02:29:34.397Z,4.53
2023-04-06T02:32:01.213Z,5.28
2023-04-06T02:34:27.880Z,7.43
2023-04-06T02:36:54.439Z,4.38
2023-04-06T02:39:21.113Z,4.88
2023-04-06T02:41:47.706Z,5.03
2023-04-06T02:44:14.262Z,5.10
2023-04-06T02:46:41.231Z,1.90
2023-04-06T02:49:08.115Z,6.63
2023-04-06T02:51:35.478Z,2.13
2023-04-06T02:54:02.093Z,3.65
2023-04-06T02:56:28.734Z,4.22
2023-04-06T02:58:55.390Z,4.05
2023-04-06T03:01:22.077Z,2.80
2023-04-06T03:03:49.099Z,4.55
2023-04-06T03:06:16.020Z,4.03
2023-04-06T03:08:42.659Z,7.55
2023-04-06T03:11:09.270Z,2.75
2023-04-06T03:13:39.451Z,3.88
2023-04-06T03:16:07.126Z,3.95
2023-04-06T03:18:34.035Z,4.63
2023-04-06T03:21:02.012Z,4.32
2023-04-06T03:23:28.629Z,4.13
2023-04-06T03:25:55.344Z,3.15
2023-04-06T03:28:22.044Z,3.85
2023-04-06T03:30:48.613Z,7.32
2023-04-06T03:33:15.312Z,3.22
2023-04-06T03:35:42.034Z,3.63
2023-04-06T03:38:08.767Z,3.40
2023-04-06T03:40:35.341Z,3.65
2023-04-06T03:43:02.015Z,8.20
2023-04-06T03:45:28.600Z,3.30
2023-04-06T03:47:55.281Z,4.88
2023-04-06T03:50:21.943Z,3.95
2023-04-06T03:52:48.577Z,4.15
2023-04-06T03:55:15.369Z,3.00
2023-04-06T03:57:42.520Z,3.03
2023-04-06T04:00:10.200Z,3.50
2023-04-06T04:02:36.839Z,4.28
2023-04-06T04:05:03.878Z,1.88
2023-04-06T04:07:30.496Z,2.97
2023-04-06T04:09:57.236Z,3.75
2023-04-06T04:12:23.889Z,6.20
2023-04-06T04:14:50.435Z,5.60
2023-04-06T04:17:17.010Z,2.95
2023-04-06T04:19:43.570Z,3.38
2023-04-06T04:22:10.696Z,6.10
2023-04-06T04:24:37.361Z,3.58
2023-04-06T04:27:04.028Z,4.80
2023-04-06T04:29:30.868Z,4.38
2023-04-06T04:31:57.911Z,2.72
2023-04-06T04:34:27.470Z,2.47
2023-04-06T04:36:54.210Z,4.43
2023-04-06T04:39:20.928Z,6.18
2023-04-06T04:41:47.529Z,3.30
2023-04-06T04:44:14.161Z,6.97
2023-04-06T04:46:42.616Z,4.35
2023-04-06T04:49:09.545Z,2.28
2023-04-06T04:51:37.450Z,4.72
2023-04-06T04:54:04.175Z,4.47
2023-04-06T04:56:30.940Z,4.13
2023-04-06T04:58:57.779Z,3.22
2023-04-06T05:01:24.489Z,5.18
2023-04-06T05:03:51.523Z,3.80
2023-04-06T05:06:19.990Z,4.43
2023-04-06T05:08:46.581Z,4.05
2023-04-06T05:11:13.763Z,5.07
2023-04-06T05:13:40.668Z,4.65
2023-04-06T05:16:07.550Z,3.85
2023-04-06T05:18:34.283Z,6.28
2023-04-06T05:21:01.047Z,4.00
2023-04-06T05:23:27.749Z,4.68
2023-04-06T05:25:54.423Z,9.00
2023-04-06T05:28:21.085Z,4.13
2023-04-06T05:30:47.782Z,3.22
2023-04-06T05:33:15.028Z,4.10
2023-04-06T05:35:41.706Z,6.72
2023-04-06T05:38:11.339Z,5.03
2023-04-06T05:40:42.393Z,7.18
2023-04-06T05:43:09.213Z,7.10
2023-04-06T05:45:36.135Z,6.90
2023-04-06T05:48:03.602Z,12.52
2023-04-06T05:50:30.513Z,7.00
2023-04-06T05:52:57.227Z,10.30
2023-04-06T05:55:23.901Z,11.70
2023-04-06T05:57:50.510Z,4.50
2023-04-06T06:00:18.274Z,6.57
2023-04-06T06:02:45.535Z,6.80
2023-04-06T06:05:12.212Z,16.40
2023-04-06T06:07:38.875Z,9.60
2023-04-06T06:10:05.934Z,23.73
2023-04-06T06:12:32.599Z,17.23
2023-04-06T06:14:59.286Z,21.33
2023-04-06T06:17:26.040Z,17.42
2023-04-06T06:19:52.721Z,42.22
2023-04-06T06:22:19.459Z,23.77
2023-04-06T06:24:46.263Z,61.88
2023-04-06T06:27:13.386Z,97.15
2023-04-06T06:29:39.996Z,10.90
2023-04-06T06:32:06.752Z,12.52
2023-04-06T06:34:33.572Z,11.80
2023-04-06T06:37:00.855Z,9.27
2023-04-06T06:39:27.757Z,14.02
2023-04-06T06:41:55.979Z,10.43
2023-04-06T06:44:22.735Z,11.48
2023-04-06T06:46:49.550Z,12.98
2023-04-06T06:49:16.236Z,14.32
2023-04-06T06:51:42.835Z,21.15
2023-04-06T06:54:09.696Z,21.25
2023-04-06T06:56:38.930Z,30.15
2023-04-06T06:59:06.966Z,18.60
2023-04-06T07:01:35.727Z,25.38
2023-04-06T07:04:02.576Z,17.30
2023-04-06T07:06:29.329Z,6.72
2023-04-06T07:08:55.894Z,9.35
2023-04-06T07:11:22.717Z,10.73
2023-04-06T07:13:49.913Z,8.35
2023-04-06T07:16:16.621Z,11.40
2023-04-06T07:18:43.335Z,12.35
2023-04-06T07:21:10.062Z,8.65
2023-04-06T07:23:36.653Z,12.50
2023-04-06T07:26:03.332Z,10.82
2023-04-06T07:28:30.029Z,13.35
2023-04-06T07:30:56.729Z,22.02
2023-04-06T07:33:23.484Z,15.45
2023-04-06T07:35:50.165Z,15.07
2023-04-06T07:38:17.008Z,16.10
2023-04-06T07:40:43.666Z,10.23
2023-04-06T07:43:10.825Z,18.00
2023-04-06T07:45:37.450Z,15.35
2023-04-06T07:48:04.160Z,12.63
2023-04-06T07:50:30.885Z,7.30
2023-04-06T07:52:58.714Z,15.38
2023-04-06T07:55:25.393Z,13.30
2023-04-06T07:57:52.444Z,14.85
2023-04-06T08:00:19.355Z,14.02
2023-04-06T08:02:46.057Z,15.85
2023-04-06T08:05:12.935Z,5.93
2023-04-06T08:07:39.636Z,12.65
2023-04-06T08:10:06.593Z,20.65
2023-04-06T08:12:34.655Z,14.85
2023-04-06T08:15:01.623Z,10.98
2023-04-06T08:17:31.353Z,12.38
2023-04-06T08:19:58.174Z,10.48
2023-04-06T08:22:25.225Z,18.20
2023-04-06T08:24:52.255Z,15.27
2023-04-06T08:27:18.932Z,15.45
2023-04-06T08:29:45.528Z,15.48
2023-04-06T08:32:12.111Z,18.25
2023-04-06T08:34:38.703Z,11.52
2023-04-06T08:37:06.457Z,15.80
2023-04-06T08:39:34.784Z,5.93
2023-04-06T08:42:03.954Z,11.13
2023-04-06T08:44:33.131Z,20.15
2023-04-06T08:47:01.305Z,11.07
2023-04-06T08:49:29.459Z,12.82
2023-04-06T08:51:58.321Z,8.48
2023-04-06T08:54:25.693Z,18.17
2023-04-06T08:56:54.084Z,9.35
2023-04-06T08:59:21.368Z,17.15
2023-04-06T09:01:48.364Z,9.75
2023-04-06T09:04:15.925Z,10.07
2023-04-06T09:06:43.664Z,3.58
2023-04-06T09:09:10.391Z,8.23
2023-04-06T09:11:51.660Z,9.38
2023-04-06T09:14:18.680Z,6.60
2023-04-06T09:16:46.858Z,3.88
2023-04-06T09:19:13.995Z,8.98
2023-04-06T09:21:43.690Z,5.28
2023-04-06T09:24:11.158Z,6.15
2023-04-06T09:26:48.461Z,9.48
2023-04-06T09:29:27.871Z,6.68
2023-04-06T09:32:06.793Z,16.13
2023-04-06T09:34:34.881Z,5.82
2023-04-06T09:37:02.367Z,6.93
2023-04-06T09:39:29.531Z,4.30
2023-04-06T09:41:57.406Z,7.78
2023-04-06T09:44:25.158Z,3.67
2023-04-06T09:47:00.280Z,6.53
2023-04-06T09:49:34.424Z,6.72
2023-04-06T09:52:04.324Z,12.55
2023-04-06T09:54:32.334Z,7.00
2023-04-06T09:57:08.257Z,6.07
2023-04-06T09:59:56.778Z,6.93
2023-04-06T10:02:44.876Z,9.55
2023-04-06T10:06:04.101Z,8.07
2023-04-06T10:08:34.224Z,10.80
2023-04-06T10:11:02.006Z,2.15
2023-04-06T10:13:28.758Z,4.97
2023-04-06T10:15:57.230Z,7.05
2023-04-06T10:18:24.109Z,10.07
2023-04-06T10:21:07.327Z,4.38
2023-04-06T10:23:37.308Z,7.40
2023-04-06T10:26:04.563Z,10.95
2023-04-06T10:28:36.784Z,5.18
2023-04-06T10:31:06.921Z,8.77
2023-04-06T10:33:33.670Z,11.10
2023-04-06T10:36:14.698Z,2.15
2023-04-06T10:38:42.865Z,4.07
2023-04-06T10:41:11.516Z,3.20
2023-04-06T10:43:40.586Z,3.20
2023-04-06T10:46:08.603Z,5.97
2023-04-06T10:48:42.711Z,6.82
2023-04-06T10:51:12.378Z,2.83
2023-04-06T10:53:39.084Z,4.53
2023-04-06T10:56:12.863Z,3.65
2023-04-06T10:58:39.901Z,4.45
2023-04-06T11:01:07.000Z,3.97
2023-04-06T11:03:44.376Z,7.30
2023-04-06T11:06:11.102Z,3.30
2023-04-06T11:08:40.432Z,3.13
2023-04-06T11:11:17.020Z,3.40
2023-04-06T11:13:51.854Z,4.20
2023-04-06T11:16:18.556Z,2.05
2023-04-06T11:18:55.811Z,4.18
2023-04-06T11:21:34.945Z,4.85
2023-04-06T11:24:09.762Z,2.20
2023-04-06T11:26:45.169Z,2.85
2023-04-06T11:29:13.452Z,2.35
2023-04-06T11:31:46.299Z,2.40
2023-04-06T11:34:14.706Z,2.45
2023-04-06T11:36:42.911Z,3.25
2023-04-06T11:39:10.094Z,3.40
2023-04-06T11:41:37.012Z,2.25
2023-04-06T11:44:04.084Z,16.48
2023-04-06T11:46:30.985Z,5.20
2023-04-06T11:49:01.942Z,2.97
2023-04-06T11:51:29.221Z,4.20
2023-04-06T11:53:57.035Z,1.30
2023-04-06T11:56:28.343Z,2.50
2023-04-06T11:59:00.836Z,3.63
2023-04-06T12:01:27.622Z,3.45
2023-04-06T12:03:55.207Z,5.05
2023-04-06T12:06:22.017Z,3.35
2023-04-06T12:08:48.692Z,3.90
2023-04-06T12:11:15.376Z,3.67
2023-04-06T12:13:42.076Z,3.35
2023-04-06T12:16:08.751Z,1.88
2023-04-06T12:18:35.404Z,1.23
2023-04-06T12:21:02.044Z,4.70
2023-04-06T12:23:28.593Z,0.88
2023-04-06T12:25:55.775Z,3.30
2023-04-06T12:28:24.199Z,3.15
2023-04-06T12:30:51.867Z,4.60
2023-04-06T12:33:18.627Z,10.07
2023-04-06T12:35:45.475Z,1.58
2023-04-06T12:38:12.391Z,4.53
2023-04-06T12:40:40.822Z,0.82
2023-04-06T12:43:07.733Z,1.42
2023-04-06T12:45:34.417Z,1.33
2023-04-06T12:48:01.297Z,1.17
2023-04-06T12:50:28.018Z,2.70
2023-04-06T12:52:54.594Z,1.60
2023-04-06T12:55:22.533Z,1.33
2023-04-06T12:57:49.193Z,1.23
2023-04-06T13:00:16.413Z,1.10
2023-04-06T13:02:48.066Z,2.00
2023-04-06T13:05:19.841Z,1.60
2023-04-06T13:07:47.801Z,1.25
2023-04-06T13:10:14.566Z,3.58
2023-04-06T13:12:41.741Z,1.17
2023-04-06T13:15:08.818Z,3.17
2023-04-06T13:17:35.589Z,4.78
2023-04-06T13:20:02.343Z,2.55
2023-04-06T13:22:28.937Z,1.30
2023-04-06T13:24:55.837Z,1.13
2023-04-06T13:27:22.416Z,1.95
2023-04-06T13:29:49.045Z,1.83
2023-04-06T13:32:15.709Z,1.70
2023-04-06T13:34:45.887Z,1.75
2023-04-06T13:37:14.314Z,0.77
2023-04-06T13:39:41.264Z,2.92
2023-04-06T13:42:08.304Z,1.17
2023-04-06T13:44:34.917Z,3.22
2023-04-06T13:47:01.526Z,1.05
2023-04-06T13:49:28.159Z,1.05
2023-04-06T13:51:54.905Z,1.95
2023-04-06T13:54:21.580Z,1.85
2023-04-06T13:56:48.089Z,1.05
2023-04-06T13:59:14.762Z,1.45
2023-04-06T14:01:41.887Z,4.55
2023-04-06T14:04:08.678Z,1.48
2023-04-06T14:06:35.337Z,2.35
2023-04-06T14:09:02.164Z,3.10
2023-04-06T14:11:29.437Z,0.90
2023-04-06T14:13:58.358Z,0.70
2023-04-06T14:16:25.712Z,0.60
2023-04-06T14:18:53.322Z,3.35
2023-04-06T14:21:19.925Z,1.85
2023-04-06T14:23:47.394Z,1.20
2023-04-06T14:26:14.284Z,2.88
2023-04-06T14:28:40.818Z,2.13
2023-04-06T14:31:17.086Z,4.18
2023-04-06T14:33:44.172Z,4.10
2023-04-06T14:36:11.891Z,5.90
2023-04-06T14:38:38.529Z,2.60
2023-04-06T14:41:05.121Z,8.02
2023-04-06T14:43:31.705Z,1.85
2023-04-06T14:46:02.149Z,1.40
2023-04-06T14:48:29.176Z,0.68
2023-04-06T14:50:58.886Z,4.20
2023-04-06T14:53:26.137Z,3.85
2023-04-06T14:55:53.540Z,1.10
2023-04-06T14:58:21.041Z,1.10
2023-04-06T15:00:48.341Z,2.90
2023-04-06T15:03:15.721Z,1.00
2023-04-06T15:05:42.867Z,2.45
2023-04-06T15:08:13.206Z,1.65
2023-04-06T15:10:39.891Z,4.38
2023-04-06T15:13:06.490Z,3.65
2023-04-06T15:15:33.081Z,1.17
2023-04-06T15:18:03.378Z,1.83
2023-04-06T15:20:30.356Z,4.55
2023-04-06T15:22:57.196Z,2.67
2023-04-06T15:25:23.727Z,1.80
2023-04-06T15:27:50.436Z,2.30
2023-04-06T15:30:17.199Z,1.75
2023-04-06T15:32:58.616Z,1.13
2023-04-06T15:35:26.503Z,3.55
2023-04-06T15:37:53.281Z,4.22
2023-04-06T15:40:20.377Z,2.17
2023-04-06T15:42:46.946Z,5.43
2023-04-06T15:45:13.644Z,1.38
2023-04-06T15:47:44.268Z,1.90
2023-04-06T15:50:11.756Z,6.07
2023-04-06T15:52:39.671Z,1.45
2023-04-06T15:55:07.989Z,2.45
2023-04-06T15:57:35.254Z,0.90
2023-04-06T16:00:02.335Z,1.35
2023-04-06T16:02:29.037Z,2.08
2023-04-06T16:05:01.319Z,1.55
2023-04-06T16:07:27.811Z,1.42
2023-04-06T16:09:54.446Z,2.50
2023-04-06T16:12:22.612Z,1.40
2023-04-06T16:14:50.071Z,3.50
2023-04-06T16:17:17.129Z,3.00
2023-04-06T16:19:43.768Z,0.80
2023-04-06T16:22:10.453Z,1.10
2023-04-06T16:24:37.915Z,1.63
2023-04-06T16:27:04.961Z,1.25
2023-04-06T16:29:32.169Z,1.35
2023-04-06T16:31:58.869Z,1.23
2023-04-06T16:34:25.518Z,1.35
2023-04-06T16:36:52.863Z,1.73
2023-04-06T16:39:19.674Z,2.00
2023-04-06T16:41:46.299Z,1.05
2023-04-06T16:44:13.165Z,0.40
2023-04-06T16:46:39.830Z,3.40
2023-04-06T16:49:07.101Z,1.58
2023-04-06T16:51:33.826Z,3.17
2023-04-06T16:54:02.257Z,3.47
2023-04-06T16:56:29.041Z,1.33
2023-04-06T16:58:55.622Z,2.38
2023-04-06T17:01:27.655Z,1.83
2023-04-06T17:03:55.357Z,1.17
2023-04-06T17:06:22.994Z,1.55
2023-04-06T17:08:49.839Z,2.05
2023-04-06T17:11:20.293Z,1.00
2023-04-06T17:13:50.782Z,1.35
2023-04-06T17:16:18.241Z,8.90
2023-04-06T17:18:44.985Z,1.88
2023-04-06T17:21:14.551Z,3.13
2023-04-06T17:23:41.533Z,3.75
2023-04-06T17:26:08.250Z,0.90
2023-04-06T17:28:34.917Z,1.40
2023-04-06T17:31:01.648Z,7.85
2023-04-06T17:33:29.356Z,1.67
2023-04-06T17:35:56.404Z,1.20
2023-04-06T17:38:24.153Z,1.35
2023-04-06T17:40:51.230Z,1.15
2023-04-06T17:43:18.279Z,3.75
2023-04-06T17:45:44.987Z,2.05
2023-04-06T17:48:11.707Z,0.68
2023-04-06T17:50:39.154Z,2.08
2023-04-06T17:53:06.177Z,3.28
2023-04-06T17:55:32.863Z,1.42
2023-04-06T17:57:59.423Z,1.45
2023-04-06T18:00:26.292Z,3.13
2023-04-06T18:02:53.535Z,1.35
2023-04-06T18:05:20.978Z,1.13
2023-04-06T18:07:48.072Z,1.85
2023-04-06T18:10:14.641Z,4.38
2023-04-06T18:12:41.268Z,0.75
2023-04-06T18:15:08.215Z,3.83
2023-04-06T18:17:35.003Z,2.33
2023-04-06T18:20:01.718Z,2.03
2023-04-06T18:22:29.011Z,1.80
2023-04-06T18:24:55.686Z,1.98
2023-04-06T18:27:22.232Z,1.38
2023-04-06T18:29:48.878Z,2.90
2023-04-06T18:32:18.490Z,4.82
2023-04-06T18:34:45.572Z,1.48
2023-04-06T18:37:13.261Z,2.95
2023-04-06T18:39:39.856Z,1.10
2023-04-06T18:42:06.419Z,4.30
2023-04-06T18:44:32.988Z,1.35
2023-04-06T18:47:00.620Z,1.92
2023-04-06T18:49:27.389Z,2.35
2023-04-06T18:51:53.922Z,2.30
2023-04-06T18:54:20.871Z,2.50
2023-04-06T18:56:48.543Z,2.03
2023-04-06T18:59:17.367Z,3.67
2023-04-06T19:01:46.666Z,4.05
2023-04-06T19:04:13.628Z,6.35
2023-04-06T19:06:40.381Z,6.05
2023-04-06T19:09:07.655Z,5.03
2023-04-06T19:11:34.307Z,3.10
2023-04-06T19:14:01.541Z,4.68
2023-04-06T19:16:29.244Z,7.22
2023-04-06T19:18:56.084Z,3.90
2023-04-06T19:21:24.709Z,6.75
2023-04-06T19:23:57.278Z,3.05
2023-04-06T19:26:27.021Z,6.50
2023-04-06T19:28:53.962Z,6.93
2023-04-06T19:31:20.512Z,6.40
2023-04-06T19:33:48.034Z,4.53
2023-04-06T19:36:16.046Z,5.82
2023-04-06T19:38:42.982Z,7.15
2023-04-06T19:41:09.617Z,8.25
2023-04-06T19:43:36.514Z,5.70
2023-04-06T19:46:04.747Z,6.78
2023-04-06T19:48:33.725Z,7.10
2023-04-06T19:51:00.399Z,3.85
2023-04-06T19:53:27.318Z,4.70
2023-04-06T19:55:53.907Z,8.05
2023-04-06T19:58:21.584Z,9.65
2023-04-06T20:00:48.209Z,7.80
2023-04-06T20:03:15.357Z,7.53
2023-04-06T20:05:42.245Z,14.50
2023-04-06T20:08:09.020Z,9.43
2023-04-06T20:10:35.689Z,7.78
2023-04-06T20:13:02.522Z,9.20
2023-04-06T20:15:29.874Z,8.70
2023-04-06T20:17:56.897Z,10.00
2023-04-06T20:20:23.549Z,10.23
2023-04-06T20:22:50.324Z,10.50
2023-04-06T20:25:18.063Z,15.23
2023-04-06T20:27:45.658Z,17.10
2023-04-06T20:30:15.444Z,9.77
2023-04-06T20:32:42.080Z,14.57
2023-04-06T20:35:09.168Z,12.23
2023-04-06T20:37:38.927Z,13.52
2023-04-06T20:40:07.035Z,15.90
2023-04-06T20:42:34.501Z,14.63
2023-04-06T20:45:03.344Z,15.45
2023-04-06T20:47:31.571Z,12.18
2023-04-06T20:49:58.842Z,12.32
2023-04-06T20:52:26.665Z,11.85
2023-04-06T20:54:54.766Z,18.42
2023-04-06T20:57:21.653Z,13.45
2023-04-06T20:59:48.290Z,15.02
2023-04-06T21:02:15.649Z,14.98
2023-04-06T21:04:43.219Z,16.13
2023-04-06T21:07:10.931Z,22.35
2023-04-06T21:09:38.865Z,22.85
2023-04-06T21:12:07.199Z,22.98
2023-04-06T21:14:34.624Z,15.20
2023-04-06T21:17:01.392Z,16.52
2023-04-06T21:19:29.448Z,14.90
2023-04-06T21:21:56.044Z,16.92
2023-04-06T21:24:22.730Z,19.73
2023-04-06T21:26:49.364Z,15.77
2023-04-06T21:29:15.952Z,15.90
2023-04-06T21:31:42.719Z,15.57
2023-04-06T21:34:11.140Z,14.52
2023-04-06T21:36:38.901Z,13.77
2023-04-06T21:39:06.789Z,9.60
2023-04-06T21:41:34.398Z,14.13
2023-04-06T21:44:01.174Z,9.45
2023-04-06T21:46:27.734Z,8.32
2023-04-06T21:48:54.388Z,10.18
2023-04-06T21:51:22.448Z,6.35
2023-04-06T21:53:49.648Z,6.20
2023-04-06T21:56:23.805Z,9.27
2023-04-06T21:58:52.063Z,8.43
2023-04-06T22:01:19.353Z,5.68
2023-04-06T22:03:46.570Z,5.05
2023-04-06T22:06:13.337Z,10.88
2023-04-06T22:08:40.621Z,7.78
2023-04-06T22:11:09.492Z,8.00
2023-04-06T22:13:36.172Z,9.18
2023-04-06T22:16:03.372Z,10.48
2023-04-06T22:18:31.224Z,8.40
2023-04-06T22:20:57.978Z,4.20
2023-04-06T22:23:24.714Z,3.72
2023-04-06T22:25:51.416Z,7.80
2023-04-06T22:28:18.145Z,5.78
2023-04-06T22:30:44.916Z,10.27
2023-04-06T22:33:12.046Z,9.48
2023-04-06T22:35:38.626Z,5.90
2023-04-06T22:38:05.275Z,6.45
2023-04-06T22:40:31.872Z,7.97
2023-04-06T22:42:58.453Z,3.38
2023-04-06T22:45:26.125Z,6.35
2023-04-06T22:47:53.441Z,7.07
2023-04-06T22:50:20.092Z,5.25
2023-04-06T22:52:46.753Z,5.90
2023-04-06T22:55:13.421Z,7.38
2023-04-06T22:57:40.045Z,8.25
2023-04-06T23:00:08.147Z,7.18
2023-04-06T23:02:34.899Z,5.03
2023-04-06T23:05:02.260Z,4.07
2023-04-06T23:07:29.197Z,5.55
2023-04-06T23:09:56.064Z,6.18
2023-04-06T23:12:23.590Z,6.97
2023-04-06T23:14:50.264Z,8.88
2023-04-06T23:17:16.925Z,5.30
2023-04-06T23:19:43.561Z,5.78
2023-04-06T23:22:10.149Z,5.68
2023-04-06T23:24:36.761Z,9.40
2023-04-06T23:27:03.438Z,6.68
2023-04-06T23:29:30.062Z,5.97
2023-04-06T23:31:56.623Z,5.38
2023-04-06T23:34:23.183Z,7.22
2023-04-06T23:36:49.771Z,8.50
2023-04-06T23:39:17.212Z,7.70
2023-04-06T23:41:43.929Z,4.63
2023-04-06T23:44:10.596Z,6.50
2023-04-06T23:46:37.277Z,8.25
2023-04-06T23:49:03.856Z,7.20
2023-04-06T23:51:30.411Z,8.10
2023-04-06T23:53:57.989Z,8.98
2023-04-06T23:56:24.704Z,7.97
2023-04-06T23:58:51.278Z,7.25
